sensor_id;sensor_type;location;lat;lon;timestamp;pressure;altitude;pressure_sealevel;temperature;humidity
67457;BME280;54319;52.038;4.640;2023-03-14T00:00:49;98995.97;;;10.37;74.47
67457;BME280;54319;52.038;4.640;2023-03-14T00:03:15;98988.56;;;10.33;75.23
67457;BME280;54319;52.038;4.640;2023-03-14T00:05:42;98988.56;;;10.33;75.22
67457;BME280;54319;52.038;4.640;2023-03-14T00:08:09;98987.75;;;10.32;75.38
67457;BME280;54319;52.038;4.640;2023-03-14T00:10:37;98995.34;;;10.30;75.49
67457;BME280;54319;52.038;4.640;2023-03-14T00:13:04;98991.31;;;10.33;75.37
67457;BME280;54319;52.038;4.640;2023-03-14T00:15:32;99006.59;;;10.34;75.19
67457;BME280;54319;52.038;4.640;2023-03-14T00:17:58;98997.00;;;10.31;75.29
67457;BME280;54319;52.038;4.640;2023-03-14T00:20:25;98992.63;;;10.30;74.99
67457;BME280;54319;52.038;4.640;2023-03-14T00:22:51;98998.34;;;10.28;75.17
67457;BME280;54319;52.038;4.640;2023-03-14T00:25:19;98986.81;;;10.21;75.61
67457;BME280;54319;52.038;4.640;2023-03-14T00:27:50;98989.13;;;10.07;75.92
67457;BME280;54319;52.038;4.640;2023-03-14T00:30:17;99012.28;;;10.10;77.51
67457;BME280;54319;52.038;4.640;2023-03-14T00:32:44;99004.31;;;10.03;78.71
67457;BME280;54319;52.038;4.640;2023-03-14T00:35:10;98999.31;;;9.95;78.79
67457;BME280;54319;52.038;4.640;2023-03-14T00:37:37;98993.22;;;9.88;79.25
67457;BME280;54319;52.038;4.640;2023-03-14T00:40:05;99002.66;;;9.80;79.96
67457;BME280;54319;52.038;4.640;2023-03-14T00:42:33;99009.25;;;9.84;80.37
67457;BME280;54319;52.038;4.640;2023-03-14T00:45:01;99004.31;;;9.81;80.55
67457;BME280;54319;52.038;4.640;2023-03-14T00:47:29;99018.44;;;9.78;80.51
67457;BME280;54319;52.038;4.640;2023-03-14T00:49:55;99015.06;;;9.70;80.99
67457;BME280;54319;52.038;4.640;2023-03-14T00:52:22;99015.56;;;9.67;81.25
67457;BME280;54319;52.038;4.640;2023-03-14T00:54:48;99007.97;;;9.69;81.20
67457;BME280;54319;52.038;4.640;2023-03-14T00:57:15;99037.34;;;9.67;81.29
67457;BME280;54319;52.038;4.640;2023-03-14T00:59:42;99033.00;;;9.66;81.52
67457;BME280;54319;52.038;4.640;2023-03-14T01:02:10;99023.25;;;9.70;81.51
67457;BME280;54319;52.038;4.640;2023-03-14T01:04:36;99037.88;;;9.64;82.12
67457;BME280;54319;52.038;4.640;2023-03-14T01:07:04;99037.88;;;9.64;81.85
67457;BME280;54319;52.038;4.640;2023-03-14T01:09:32;99011.13;;;9.61;82.07
67457;BME280;54319;52.038;4.640;2023-03-14T01:11:59;98999.19;;;9.62;82.10
67457;BME280;54319;52.038;4.640;2023-03-14T01:14:27;99003.22;;;9.60;82.31
67457;BME280;54319;52.038;4.640;2023-03-14T01:16:53;98999.09;;;9.57;82.44
67457;BME280;54319;52.038;4.640;2023-03-14T01:19:27;99011.31;;;9.54;82.68
67457;BME280;54319;52.038;4.640;2023-03-14T01:21:54;98989.78;;;9.53;82.66
67457;BME280;54319;52.038;4.640;2023-03-14T01:24:20;99002.56;;;9.52;83.15
67457;BME280;54319;52.038;4.640;2023-03-14T01:26:47;99007.44;;;9.50;82.96
67457;BME280;54319;52.038;4.640;2023-03-14T01:29:14;99011.00;;;9.51;83.18
67457;BME280;54319;52.038;4.640;2023-03-14T01:31:40;99006.81;;;9.43;83.33
67457;BME280;54319;52.038;4.640;2023-03-14T01:34:07;99013.97;;;9.49;83.21
67457;BME280;54319;52.038;4.640;2023-03-14T01:36:35;99018.84;;;9.47;83.36
67457;BME280;54319;52.038;4.640;2023-03-14T01:39:01;98989.13;;;9.46;83.11
67457;BME280;54319;52.038;4.640;2023-03-14T01:41:28;98996.22;;;9.47;83.08
67457;BME280;54319;52.038;4.640;2023-03-14T01:43:55;98985.47;;;9.35;83.33
67457;BME280;54319;52.038;4.640;2023-03-14T01:46:29;99008.19;;;9.46;83.02
67457;BME280;54319;52.038;4.640;2023-03-14T01:49:17;98996.81;;;9.49;82.95
67457;BME280;54319;52.038;4.640;2023-03-14T01:51:51;98993.03;;;9.50;82.91
67457;BME280;54319;52.038;4.640;2023-03-14T01:54:24;98984.84;;;9.50;82.85
67457;BME280;54319;52.038;4.640;2023-03-14T01:56:54;98991.69;;;9.52;82.78
67457;BME280;54319;52.038;4.640;2023-03-14T01:59:23;98948.09;;;9.30;82.44
67457;BME280;54319;52.038;4.640;2023-03-14T02:01:50;98979.47;;;9.55;82.46
67457;BME280;54319;52.038;4.640;2023-03-14T02:04:19;98983.28;;;9.54;82.40
67457;BME280;54319;52.038;4.640;2023-03-14T02:06:54;98971.31;;;9.55;82.33
67457;BME280;54319;52.038;4.640;2023-03-14T02:09:22;98951.94;;;9.51;82.32
67457;BME280;54319;52.038;4.640;2023-03-14T02:11:50;98972.69;;;9.58;82.33
67457;BME280;54319;52.038;4.640;2023-03-14T02:14:24;98969.16;;;9.57;81.88
67457;BME280;54319;52.038;4.640;2023-03-14T02:16:51;98961.16;;;9.50;82.36
67457;BME280;54319;52.038;4.640;2023-03-14T02:19:22;98949.94;;;9.47;82.45
67457;BME280;54319;52.038;4.640;2023-03-14T02:21:59;98917.03;;;9.26;82.46
67457;BME280;54319;52.038;4.640;2023-03-14T02:24:35;98940.50;;;9.32;82.88
67457;BME280;54319;52.038;4.640;2023-03-14T02:27:08;98955.03;;;9.38;82.96
67457;BME280;54319;52.038;4.640;2023-03-14T02:29:39;98952.03;;;9.39;82.70
67457;BME280;54319;52.038;4.640;2023-03-14T02:32:07;98951.97;;;9.34;82.44
67457;BME280;54319;52.038;4.640;2023-03-14T02:34:34;98957.97;;;9.36;82.67
67457;BME280;54319;52.038;4.640;2023-03-14T02:37:02;98959.06;;;9.35;82.89
67457;BME280;54319;52.038;4.640;2023-03-14T02:39:35;98937.16;;;9.25;82.92
67457;BME280;54319;52.038;4.640;2023-03-14T02:42:03;98958.75;;;9.32;83.13
67457;BME280;54319;52.038;4.640;2023-03-14T02:44:31;98947.78;;;9.26;83.11
67457;BME280;54319;52.038;4.640;2023-03-14T02:46:59;98961.72;;;9.30;83.44
67457;BME280;54319;52.038;4.640;2023-03-14T02:49:27;98949.19;;;9.29;84.38
67457;BME280;54319;52.038;4.640;2023-03-14T02:51:55;98946.38;;;9.24;85.29
67457;BME280;54319;52.038;4.640;2023-03-14T02:54:22;98931.81;;;9.13;85.81
67457;BME280;54319;52.038;4.640;2023-03-14T02:56:48;98949.22;;;9.12;86.13
67457;BME280;54319;52.038;4.640;2023-03-14T02:59:15;98948.28;;;9.06;86.57
67457;BME280;54319;52.038;4.640;2023-03-14T03:01:43;98929.09;;;8.96;86.60
67457;BME280;54319;52.038;4.640;2023-03-14T03:04:10;98950.72;;;9.03;86.72
67457;BME280;54319;52.038;4.640;2023-03-14T03:06:36;98948.78;;;9.03;86.65
67457;BME280;54319;52.038;4.640;2023-03-14T03:09:03;98937.09;;;9.03;86.30
67457;BME280;54319;52.038;4.640;2023-03-14T03:11:30;98934.38;;;9.03;86.09
67457;BME280;54319;52.038;4.640;2023-03-14T03:13:56;98927.03;;;9.03;86.04
67457;BME280;54319;52.038;4.640;2023-03-14T03:16:23;98933.03;;;9.05;86.12
67457;BME280;54319;52.038;4.640;2023-03-14T03:18:51;98936.69;;;9.11;85.71
67457;BME280;54319;52.038;4.640;2023-03-14T03:21:18;98928.78;;;9.09;85.67
67457;BME280;54319;52.038;4.640;2023-03-14T03:23:48;98930.50;;;9.16;85.20
67457;BME280;54319;52.038;4.640;2023-03-14T03:26:15;98927.72;;;9.10;85.39
67457;BME280;54319;52.038;4.640;2023-03-14T03:28:42;98922.34;;;9.16;85.28
67457;BME280;54319;52.038;4.640;2023-03-14T03:31:09;98871.22;;;8.78;85.33
67457;BME280;54319;52.038;4.640;2023-03-14T03:33:36;98922.56;;;9.14;85.31
67457;BME280;54319;52.038;4.640;2023-03-14T03:36:05;98915.56;;;9.18;85.04
67457;BME280;54319;52.038;4.640;2023-03-14T03:38:31;98921.00;;;9.18;84.92
67457;BME280;54319;52.038;4.640;2023-03-14T03:41:02;98921.00;;;9.18;85.07
67457;BME280;54319;52.038;4.640;2023-03-14T03:43:28;98917.97;;;9.15;84.98
67457;BME280;54319;52.038;4.640;2023-03-14T03:45:55;98915.25;;;9.15;85.30
67457;BME280;54319;52.038;4.640;2023-03-14T03:48:22;98914.75;;;9.18;85.21
67457;BME280;54319;52.038;4.640;2023-03-14T03:50:48;98916.97;;;9.21;84.86
67457;BME280;54319;52.038;4.640;2023-03-14T03:53:16;98908.81;;;9.21;84.78
67457;BME280;54319;52.038;4.640;2023-03-14T03:55:43;98916.47;;;9.24;84.75
67457;BME280;54319;52.038;4.640;2023-03-14T03:58:10;98919.69;;;9.21;84.98
67457;BME280;54319;52.038;4.640;2023-03-14T04:00:36;98917.28;;;9.24;84.63
67457;BME280;54319;52.038;4.640;2023-03-14T04:03:04;98914.81;;;9.23;84.91
67457;BME280;54319;52.038;4.640;2023-03-14T04:05:31;98916.75;;;9.27;84.71
67457;BME280;54319;52.038;4.640;2023-03-14T04:07:57;98918.34;;;9.23;84.83
67457;BME280;54319;52.038;4.640;2023-03-14T04:10:25;98917.84;;;9.26;84.69
67457;BME280;54319;52.038;4.640;2023-03-14T04:12:52;98911.81;;;9.24;84.96
67457;BME280;54319;52.038;4.640;2023-03-14T04:15:18;98921.91;;;9.24;85.17
67457;BME280;54319;52.038;4.640;2023-03-14T04:17:45;98920.81;;;9.25;85.12
67457;BME280;54319;52.038;4.640;2023-03-14T04:20:12;98921.91;;;9.24;85.50
67457;BME280;54319;52.038;4.640;2023-03-14T04:22:39;98931.66;;;9.20;86.53
67457;BME280;54319;52.038;4.640;2023-03-14T04:25:07;98917.56;;;9.06;87.86
67457;BME280;54319;52.038;4.640;2023-03-14T04:27:35;98922.16;;;9.05;88.71
67457;BME280;54319;52.038;4.640;2023-03-14T04:30:02;98928.09;;;9.02;89.41
67457;BME280;54319;52.038;4.640;2023-03-14T04:32:28;98924.81;;;9.00;89.99
67457;BME280;54319;52.038;4.640;2023-03-14T04:34:55;98930.09;;;8.90;90.22
67457;BME280;54319;52.038;4.640;2023-03-14T04:37:21;98914.03;;;8.88;90.80
67457;BME280;54319;52.038;4.640;2023-03-14T04:39:49;98911.16;;;8.78;91.67
67457;BME280;54319;52.038;4.640;2023-03-14T04:42:16;98909.66;;;8.70;91.76
67457;BME280;54319;52.038;4.640;2023-03-14T04:44:44;98917.38;;;8.73;92.20
67457;BME280;54319;52.038;4.640;2023-03-14T04:47:12;98910.28;;;8.72;92.18
67457;BME280;54319;52.038;4.640;2023-03-14T04:49:38;98905.56;;;8.67;92.62
67457;BME280;54319;52.038;4.640;2023-03-14T04:52:05;98914.31;;;8.69;92.78
67457;BME280;54319;52.038;4.640;2023-03-14T04:54:32;98902.94;;;8.56;92.89
67457;BME280;54319;52.038;4.640;2023-03-14T04:56:58;98906.31;;;8.63;93.34
67457;BME280;54319;52.038;4.640;2023-03-14T04:59:25;98903.84;;;8.61;93.49
67457;BME280;54319;52.038;4.640;2023-03-14T05:01:53;98851.69;;;8.30;93.94
67457;BME280;54319;52.038;4.640;2023-03-14T05:04:20;98897.16;;;8.52;94.37
67457;BME280;54319;52.038;4.640;2023-03-14T05:06:46;98903.44;;;8.52;94.95
67457;BME280;54319;52.038;4.640;2023-03-14T05:09:13;98887.41;;;8.39;95.33
67457;BME280;54319;52.038;4.640;2023-03-14T05:11:40;98907.34;;;8.45;95.77
67457;BME280;54319;52.038;4.640;2023-03-14T05:14:07;98888.22;;;8.39;95.81
67457;BME280;54319;52.038;4.640;2023-03-14T05:16:33;98896.16;;;8.41;96.15
67457;BME280;54319;52.038;4.640;2023-03-14T05:19:01;98892.84;;;8.39;96.27
67457;BME280;54319;52.038;4.640;2023-03-14T05:21:28;98896.31;;;8.34;97.02
67457;BME280;54319;52.038;4.640;2023-03-14T05:23:56;98829.28;;;8.06;96.91
67457;BME280;54319;52.038;4.640;2023-03-14T05:26:23;98900.44;;;8.37;97.02
67457;BME280;54319;52.038;4.640;2023-03-14T05:28:49;98901.00;;;8.39;96.73
67457;BME280;54319;52.038;4.640;2023-03-14T05:31:16;98900.75;;;8.40;96.91
67457;BME280;54319;52.038;4.640;2023-03-14T05:33:43;98907.50;;;8.38;97.06
67457;BME280;54319;52.038;4.640;2023-03-14T05:36:10;98922.16;;;8.37;97.02
67457;BME280;54319;52.038;4.640;2023-03-14T05:38:37;98942.25;;;8.36;97.50
67457;BME280;54319;52.038;4.640;2023-03-14T05:41:04;98950.78;;;8.28;96.89
67457;BME280;54319;52.038;4.640;2023-03-14T05:43:31;98962.03;;;8.19;96.18
67457;BME280;54319;52.038;4.640;2023-03-14T05:45:58;98968.34;;;8.08;94.32
67457;BME280;54319;52.038;4.640;2023-03-14T05:48:24;98979.63;;;7.88;93.84
67457;BME280;54319;52.038;4.640;2023-03-14T05:50:54;98980.53;;;7.64;93.74
67457;BME280;54319;52.038;4.640;2023-03-14T05:53:23;98985.97;;;7.52;94.48
67457;BME280;54319;52.038;4.640;2023-03-14T05:55:51;98998.94;;;7.38;94.85
67457;BME280;54319;52.038;4.640;2023-03-14T05:58:17;99002.50;;;7.27;94.88
67457;BME280;54319;52.038;4.640;2023-03-14T06:00:44;99010.03;;;7.25;95.27
67457;BME280;54319;52.038;4.640;2023-03-14T06:03:11;99020.91;;;7.25;95.31
67457;BME280;54319;52.038;4.640;2023-03-14T06:05:38;99018.75;;;7.15;95.40
67457;BME280;54319;52.038;4.640;2023-03-14T06:08:04;99020.41;;;7.16;95.87
67457;BME280;54319;52.038;4.640;2023-03-14T06:10:32;99014.38;;;7.02;95.62
67457;BME280;54319;52.038;4.640;2023-03-14T06:13:00;99029.59;;;7.03;95.47
67457;BME280;54319;52.038;4.640;2023-03-14T06:15:28;99040.44;;;7.03;95.96
67457;BME280;54319;52.038;4.640;2023-03-14T06:17:56;99004.19;;;6.74;95.90
67457;BME280;54319;52.038;4.640;2023-03-14T06:20:23;99043.03;;;6.98;96.22
67457;BME280;54319;52.038;4.640;2023-03-14T06:22:49;99057.16;;;7.00;96.32
67457;BME280;54319;52.038;4.640;2023-03-14T06:25:16;99050.91;;;6.88;96.21
67457;BME280;54319;52.038;4.640;2023-03-14T06:27:44;99059.63;;;6.90;96.10
67457;BME280;54319;52.038;4.640;2023-03-14T06:30:11;99075.56;;;6.98;95.79
67457;BME280;54319;52.038;4.640;2023-03-14T06:32:38;99091.09;;;6.91;96.54
67457;BME280;54319;52.038;4.640;2023-03-14T06:35:05;99099.09;;;6.86;96.42
67457;BME280;54319;52.038;4.640;2023-03-14T06:37:32;99111.63;;;6.68;96.20
67457;BME280;54319;52.038;4.640;2023-03-14T06:39:58;99113.00;;;6.59;96.01
67457;BME280;54319;52.038;4.640;2023-03-14T06:42:25;99121.94;;;6.59;96.06
67457;BME280;54319;52.038;4.640;2023-03-14T06:44:53;99125.34;;;6.55;95.59
67457;BME280;54319;52.038;4.640;2023-03-14T06:47:19;99129.72;;;6.56;96.14
67457;BME280;54319;52.038;4.640;2023-03-14T06:49:46;99136.56;;;6.58;96.07
67457;BME280;54319;52.038;4.640;2023-03-14T06:52:12;99139.22;;;6.46;96.36
67457;BME280;54319;52.038;4.640;2023-03-14T06:54:39;99149.59;;;6.49;96.32
67457;BME280;54319;52.038;4.640;2023-03-14T06:57:06;99168.84;;;6.60;96.40
67457;BME280;54319;52.038;4.640;2023-03-14T06:59:32;99178.63;;;6.61;96.03
67457;BME280;54319;52.038;4.640;2023-03-14T07:02:00;99185.09;;;6.60;95.81
67457;BME280;54319;52.038;4.640;2023-03-14T07:04:27;99181.88;;;6.51;95.86
67457;BME280;54319;52.038;4.640;2023-03-14T07:06:53;99204.28;;;6.58;95.93
67457;BME280;54319;52.038;4.640;2023-03-14T07:09:20;99208.59;;;6.66;95.50
67457;BME280;54319;52.038;4.640;2023-03-14T07:11:47;99206.31;;;6.63;95.77
67457;BME280;54319;52.038;4.640;2023-03-14T07:14:15;99219.59;;;6.53;95.91
67457;BME280;54319;52.038;4.640;2023-03-14T07:16:41;99236.72;;;6.65;95.71
67457;BME280;54319;52.038;4.640;2023-03-14T07:19:09;99243.66;;;6.61;95.56
67457;BME280;54319;52.038;4.640;2023-03-14T07:21:36;99249.53;;;6.58;95.86
67457;BME280;54319;52.038;4.640;2023-03-14T07:24:03;99257.88;;;6.56;96.19
67457;BME280;54319;52.038;4.640;2023-03-14T07:26:29;99266.44;;;6.53;96.62
67457;BME280;54319;52.038;4.640;2023-03-14T07:28:56;99282.84;;;6.58;96.45
67457;BME280;54319;52.038;4.640;2023-03-14T07:31:23;99276.09;;;6.49;96.74
67457;BME280;54319;52.038;4.640;2023-03-14T07:33:49;99292.72;;;6.71;96.10
67457;BME280;54319;52.038;4.640;2023-03-14T07:36:17;99295.75;;;6.63;95.68
67457;BME280;54319;52.038;4.640;2023-03-14T07:38:44;99304.19;;;6.73;95.04
67457;BME280;54319;52.038;4.640;2023-03-14T07:41:13;99284.91;;;6.44;95.20
67457;BME280;54319;52.038;4.640;2023-03-14T07:43:40;99326.59;;;6.62;95.09
67457;BME280;54319;52.038;4.640;2023-03-14T07:46:07;99358.72;;;6.58;95.81
67457;BME280;54319;52.038;4.640;2023-03-14T07:48:35;99365.13;;;6.45;96.11
67457;BME280;54319;52.038;4.640;2023-03-14T07:51:02;99376.47;;;6.29;95.83
67457;BME280;54319;52.038;4.640;2023-03-14T07:53:30;99385.06;;;6.26;94.96
67457;BME280;54319;52.038;4.640;2023-03-14T07:55:57;99379.16;;;6.03;95.58
67457;BME280;54319;52.038;4.640;2023-03-14T07:58:24;99409.75;;;6.04;95.82
67457;BME280;54319;52.038;4.640;2023-03-14T08:00:51;99421.25;;;5.92;95.66
67457;BME280;54319;52.038;4.640;2023-03-14T08:03:18;99436.09;;;5.83;95.03
67457;BME280;54319;52.038;4.640;2023-03-14T08:05:47;99442.47;;;5.96;95.61
67457;BME280;54319;52.038;4.640;2023-03-14T08:08:13;99448.75;;;5.89;94.72
67457;BME280;54319;52.038;4.640;2023-03-14T08:10:41;99469.22;;;5.78;95.05
67457;BME280;54319;52.038;4.640;2023-03-14T08:13:10;99477.75;;;5.82;95.52
67457;BME280;54319;52.038;4.640;2023-03-14T08:15:37;99488.56;;;5.82;95.75
67457;BME280;54319;52.038;4.640;2023-03-14T08:18:04;99470.56;;;5.56;95.40
67457;BME280;54319;52.038;4.640;2023-03-14T08:20:31;99511.28;;;5.74;95.37
67457;BME280;54319;52.038;4.640;2023-03-14T08:23:00;99516.69;;;5.74;93.37
67457;BME280;54319;52.038;4.640;2023-03-14T08:25:27;99525.78;;;5.87;93.06
67457;BME280;54319;52.038;4.640;2023-03-14T08:27:55;99548.47;;;5.92;92.41
67457;BME280;54319;52.038;4.640;2023-03-14T08:30:22;99553.91;;;5.92;90.70
67457;BME280;54319;52.038;4.640;2023-03-14T08:32:49;99565.75;;;5.98;91.63
67457;BME280;54319;52.038;4.640;2023-03-14T08:35:16;99571.41;;;5.90;90.97
67457;BME280;54319;52.038;4.640;2023-03-14T08:37:42;99586.41;;;5.79;89.42
67457;BME280;54319;52.038;4.640;2023-03-14T08:40:10;99599.34;;;5.63;89.09
67457;BME280;54319;52.038;4.640;2023-03-14T08:42:37;99620.56;;;5.67;89.39
67457;BME280;54319;52.038;4.640;2023-03-14T08:45:07;99628.91;;;5.65;89.43
67457;BME280;54319;52.038;4.640;2023-03-14T08:47:34;99644.09;;;5.66;89.55
67457;BME280;54319;52.038;4.640;2023-03-14T08:50:02;99653.69;;;5.62;88.51
67457;BME280;54319;52.038;4.640;2023-03-14T08:52:29;99669.25;;;5.67;87.11
67457;BME280;54319;52.038;4.640;2023-03-14T08:54:57;99670.31;;;5.72;87.86
67457;BME280;54319;52.038;4.640;2023-03-14T08:57:23;99670.31;;;5.72;86.25
67457;BME280;54319;52.038;4.640;2023-03-14T08:59:52;99682.81;;;5.80;85.54
67457;BME280;54319;52.038;4.640;2023-03-14T09:02:20;99690.91;;;5.93;87.81
67457;BME280;54319;52.038;4.640;2023-03-14T09:04:47;99694.03;;;6.04;86.35
67457;BME280;54319;52.038;4.640;2023-03-14T09:07:14;99707.34;;;6.19;86.29
67457;BME280;54319;52.038;4.640;2023-03-14T09:09:42;99717.50;;;6.37;87.05
67457;BME280;54319;52.038;4.640;2023-03-14T09:12:08;99723.53;;;6.53;84.88
67457;BME280;54319;52.038;4.640;2023-03-14T09:14:35;99728.91;;;6.59;85.10
67457;BME280;54319;52.038;4.640;2023-03-14T09:17:03;99751.63;;;6.58;84.27
67457;BME280;54319;52.038;4.640;2023-03-14T09:19:31;99748.97;;;6.51;83.54
67457;BME280;54319;52.038;4.640;2023-03-14T09:21:58;99760.66;;;6.39;81.39
67457;BME280;54319;52.038;4.640;2023-03-14T09:24:24;99773.53;;;6.43;84.23
67457;BME280;54319;52.038;4.640;2023-03-14T09:26:51;99784.81;;;6.40;85.47
67457;BME280;54319;52.038;4.640;2023-03-14T09:29:17;99784.81;;;6.40;84.61
67457;BME280;54319;52.038;4.640;2023-03-14T09:31:45;99796.28;;;6.29;83.69
67457;BME280;54319;52.038;4.640;2023-03-14T09:34:11;99817.34;;;6.20;83.38
67457;BME280;54319;52.038;4.640;2023-03-14T09:36:40;99836.72;;;6.17;82.29
67457;BME280;54319;52.038;4.640;2023-03-14T09:39:06;99854.81;;;6.03;86.17
67457;BME280;54319;52.038;4.640;2023-03-14T09:41:35;99864.34;;;5.85;88.37
67457;BME280;54319;52.038;4.640;2023-03-14T09:44:05;99878.06;;;5.84;88.49
67457;BME280;54319;52.038;4.640;2023-03-14T09:46:35;99877.03;;;5.78;89.21
67457;BME280;54319;52.038;4.640;2023-03-14T09:49:09;99890.78;;;5.83;88.91
67457;BME280;54319;52.038;4.640;2023-03-14T09:51:40;99887.66;;;5.73;89.25
67457;BME280;54319;52.038;4.640;2023-03-14T09:54:18;99896.00;;;5.78;88.58
67457;BME280;54319;52.038;4.640;2023-03-14T09:56:51;99905.56;;;5.80;87.07
67457;BME280;54319;52.038;4.640;2023-03-14T09:59:18;99915.81;;;5.92;86.20
67457;BME280;54319;52.038;4.640;2023-03-14T10:01:45;99919.56;;;5.98;85.35
67457;BME280;54319;52.038;4.640;2023-03-14T10:04:14;99925.25;;;6.10;82.65
67457;BME280;54319;52.038;4.640;2023-03-14T10:06:43;99923.59;;;6.15;84.28
67457;BME280;54319;52.038;4.640;2023-03-14T10:09:11;99943.00;;;6.32;84.74
67457;BME280;54319;52.038;4.640;2023-03-14T10:11:41;99909.81;;;6.17;82.63
67457;BME280;54319;52.038;4.640;2023-03-14T10:14:08;99954.25;;;6.63;80.27
67457;BME280;54319;52.038;4.640;2023-03-14T10:16:41;99968.22;;;6.73;79.72
67457;BME280;54319;52.038;4.640;2023-03-14T10:19:11;99977.41;;;6.72;78.40
67457;BME280;54319;52.038;4.640;2023-03-14T10:21:39;99983.25;;;6.76;78.01
67457;BME280;54319;52.038;4.640;2023-03-14T10:24:28;99921.72;;;6.22;78.69
67457;BME280;54319;52.038;4.640;2023-03-14T10:26:58;100016.19;;;6.73;78.12
67457;BME280;54319;52.038;4.640;2023-03-14T10:29:28;100020.38;;;6.69;76.07
67457;BME280;54319;52.038;4.640;2023-03-14T10:31:58;100033.47;;;6.65;75.83
67457;BME280;54319;52.038;4.640;2023-03-14T10:34:28;100001.13;;;6.43;74.46
67457;BME280;54319;52.038;4.640;2023-03-14T10:36:57;100056.84;;;6.73;74.04
67457;BME280;54319;52.038;4.640;2023-03-14T10:39:34;100063.13;;;6.87;76.02
67457;BME280;54319;52.038;4.640;2023-03-14T10:42:06;100078.34;;;6.81;75.32
67457;BME280;54319;52.038;4.640;2023-03-14T10:44:38;100087.09;;;6.70;70.62
67457;BME280;54319;52.038;4.640;2023-03-14T10:47:05;100069.97;;;6.56;70.84
67457;BME280;54319;52.038;4.640;2023-03-14T10:49:35;100099.97;;;6.61;70.30
67457;BME280;54319;52.038;4.640;2023-03-14T10:52:13;100115.84;;;6.64;69.23
67457;BME280;54319;52.038;4.640;2023-03-14T10:54:46;100114.13;;;6.49;68.29
67457;BME280;54319;52.038;4.640;2023-03-14T10:57:13;100126.66;;;6.57;69.17
67457;BME280;54319;52.038;4.640;2023-03-14T10:59:43;100127.47;;;6.51;70.18
67457;BME280;54319;52.038;4.640;2023-03-14T11:02:40;100148.53;;;6.56;69.40
67457;BME280;54319;52.038;4.640;2023-03-14T11:05:21;100150.88;;;6.65;70.51
67457;BME280;54319;52.038;4.640;2023-03-14T11:07:52;100159.06;;;6.86;70.05
67457;BME280;54319;52.038;4.640;2023-03-14T11:10:26;100182.69;;;7.19;69.10
67457;BME280;54319;52.038;4.640;2023-03-14T11:13:04;100164.28;;;7.01;66.14
67457;BME280;54319;52.038;4.640;2023-03-14T11:15:38;100192.47;;;7.06;66.79
67457;BME280;54319;52.038;4.640;2023-03-14T11:18:34;100201.63;;;6.99;65.35
67457;BME280;54319;52.038;4.640;2023-03-14T11:21:08;100175.53;;;6.84;65.53
67457;BME280;54319;52.038;4.640;2023-03-14T11:23:42;100230.28;;;7.21;63.91
67457;BME280;54319;52.038;4.640;2023-03-14T11:26:23;100228.66;;;7.41;62.89
67457;BME280;54319;52.038;4.640;2023-03-14T11:28:57;100240.81;;;7.58;63.66
67457;BME280;54319;52.038;4.640;2023-03-14T11:31:26;100251.25;;;7.75;61.72
67457;BME280;54319;52.038;4.640;2023-03-14T11:33:56;100261.88;;;7.83;61.58
67457;BME280;54319;52.038;4.640;2023-03-14T11:36:30;100263.78;;;7.76;60.48
67457;BME280;54319;52.038;4.640;2023-03-14T11:38:59;100275.66;;;7.88;60.97
67457;BME280;54319;52.038;4.640;2023-03-14T11:41:31;100278.81;;;7.92;57.61
67457;BME280;54319;52.038;4.640;2023-03-14T11:43:59;100246.22;;;7.72;57.05
67457;BME280;54319;52.038;4.640;2023-03-14T11:46:30;100293.88;;;8.08;57.66
67457;BME280;54319;52.038;4.640;2023-03-14T11:49:04;100311.00;;;8.22;59.63
67457;BME280;54319;52.038;4.640;2023-03-14T11:51:34;100313.31;;;8.25;57.33
67457;BME280;54319;52.038;4.640;2023-03-14T11:54:07;100321.03;;;8.21;53.55
67457;BME280;54319;52.038;4.640;2023-03-14T11:56:44;100325.63;;;8.21;57.05
67457;BME280;54319;52.038;4.640;2023-03-14T11:59:17;100333.16;;;8.12;54.93
67457;BME280;54319;52.038;4.640;2023-03-14T12:01:53;100330.59;;;7.77;53.00
67457;BME280;54319;52.038;4.640;2023-03-14T12:04:30;100349.00;;;7.88;52.62
67457;BME280;54319;52.038;4.640;2023-03-14T12:07:02;100346.09;;;7.96;54.85
67457;BME280;54319;52.038;4.640;2023-03-14T12:09:30;100343.19;;;8.05;53.24
67457;BME280;54319;52.038;4.640;2023-03-14T12:12:00;100355.94;;;8.24;54.76
67457;BME280;54319;52.038;4.640;2023-03-14T12:14:29;100353.22;;;8.38;53.74
67457;BME280;54319;52.038;4.640;2023-03-14T12:16:58;100370.16;;;8.33;52.02
67457;BME280;54319;52.038;4.640;2023-03-14T12:19:43;100351.56;;;8.17;51.95
67457;BME280;54319;52.038;4.640;2023-03-14T12:25:02;100382.25;;;8.10;50.67
67457;BME280;54319;52.038;4.640;2023-03-14T12:27:50;100383.28;;;8.09;50.66
67457;BME280;54319;52.038;4.640;2023-03-14T12:30:30;100408.78;;;8.02;54.67
67457;BME280;54319;52.038;4.640;2023-03-14T12:33:30;100407.72;;;7.89;54.26
67457;BME280;54319;52.038;4.640;2023-03-14T12:36:04;100407.53;;;7.97;55.75
67457;BME280;54319;52.038;4.640;2023-03-14T12:38:52;100401.69;;;8.14;53.33
67457;BME280;54319;52.038;4.640;2023-03-14T12:41:27;100410.47;;;8.30;50.97
67457;BME280;54319;52.038;4.640;2023-03-14T12:43:56;100418.03;;;8.41;52.98
67457;BME280;54319;52.038;4.640;2023-03-14T12:46:43;100414.88;;;8.31;52.47
67457;BME280;54319;52.038;4.640;2023-03-14T12:49:10;100425.94;;;8.22;53.98
67457;BME280;54319;52.038;4.640;2023-03-14T12:51:38;100436.81;;;8.22;55.48
67457;BME280;54319;52.038;4.640;2023-03-14T12:54:21;100428.66;;;8.22;55.39
67457;BME280;54319;52.038;4.640;2023-03-14T12:57:03;100365.88;;;7.63;51.17
67457;BME280;54319;52.038;4.640;2023-03-14T12:59:36;100458.16;;;8.25;48.89
67457;BME280;54319;52.038;4.640;2023-03-14T13:02:27;100456.06;;;8.21;46.02
67457;BME280;54319;52.038;4.640;2023-03-14T13:05:02;100470.09;;;8.31;48.21
67457;BME280;54319;52.038;4.640;2023-03-14T13:07:32;100475.13;;;8.41;48.43
67457;BME280;54319;52.038;4.640;2023-03-14T13:10:02;100474.28;;;8.34;45.05
67457;BME280;54319;52.038;4.640;2023-03-14T13:12:37;100497.91;;;8.40;47.41
67457;BME280;54319;52.038;4.640;2023-03-14T13:15:17;100486.78;;;8.15;45.92
67457;BME280;54319;52.038;4.640;2023-03-14T13:17:46;100507.13;;;8.39;47.61
67457;BME280;54319;52.038;4.640;2023-03-14T13:20:17;100508.53;;;8.21;47.82